sensor_id;sensor_type;location;lat;lon;timestamp;pressure;altitude;pressure_sealevel;temperature;humidity
11314;BME280;5712;48.858;9.206;2023-12-20T00:00:37;98192.31;;;5.60;100.00
11314;BME280;5712;48.858;9.206;2023-12-20T00:03:04;98183.88;;;5.54;100.00
11314;BME280;5712;48.858;9.206;2023-12-20T00:05:30;98198.16;;;5.48;100.00
11314;BME280;5712;48.858;9.206;2023-12-20T00:07:57;98189.66;;;5.43;100.00
11314;BME280;5712;48.858;9.206;2023-12-20T00:10:24;98184.75;;;5.36;100.00
11314;BME280;5712;48.858;9.206;2023-12-20T00:12:50;98185.78;;;5.33;100.00
11314;BME280;5712;48.858;9.206;2023-12-20T00:15:18;98177.00;;;5.34;100.00
11314;BME280;5712;48.858;9.206;2023-12-20T00:17:44;98177.13;;;5.31;100.00
11314;BME280;5712;48.858;9.206;2023-12-20T00:20:12;98170.19;;;5.30;100.00
11314;BME280;5712;48.858;9.206;2023-12-20T00:22:38;98180.69;;;5.30;100.00
11314;BME280;5712;48.858;9.206;2023-12-20T00:25:05;98171.81;;;5.33;100.00
11314;BME280;5712;48.858;9.206;2023-12-20T00:27:32;98175.38;;;5.32;100.00
11314;BME280;5712;48.858;9.206;2023-12-20T00:29:58;98163.09;;;5.32;100.00
11314;BME280;5712;48.858;9.206;2023-12-20T00:32:26;98173.59;;;5.32;100.00
11314;BME280;5712;48.858;9.206;2023-12-20T00:34:53;98172.69;;;5.33;100.00
11314;BME280;5712;48.858;9.206;2023-12-20T00:37:19;98163.09;;;5.32;100.00
11314;BME280;5712;48.858;9.206;2023-12-20T00:39:46;98163.25;;;5.29;100.00
11314;BME280;5712;48.858;9.206;2023-12-20T00:42:12;98162.41;;;5.29;100.00
11314;BME280;5712;48.858;9.206;2023-12-20T00:44:39;98149.53;;;5.24;100.00
11314;BME280;5712;48.858;9.206;2023-12-20T00:47:05;98150.38;;;5.25;100.00
11314;BME280;5712;48.858;9.206;2023-12-20T00:49:33;98164.38;;;5.24;100.00
11314;BME280;5712;48.858;9.206;2023-12-20T00:52:00;98167.09;;;5.22;100.00
11314;BME280;5712;48.858;9.206;2023-12-20T00:54:26;98167.00;;;5.24;100.00
11314;BME280;5712;48.858;9.206;2023-12-20T00:56:53;98170.50;;;5.24;100.00
11314;BME280;5712;48.858;9.206;2023-12-20T00:59:20;98170.66;;;5.21;100.00
11314;BME280;5712;48.858;9.206;2023-12-20T01:01:46;98166.41;;;5.19;100.00
11314;BME280;5712;48.858;9.206;2023-12-20T01:04:13;98168.94;;;5.20;100.00
11314;BME280;5712;48.858;9.206;2023-12-20T01:06:40;98174.31;;;5.17;100.00
11314;BME280;5712;48.858;9.206;2023-12-20T01:09:07;98165.69;;;5.15;100.00
11314;BME280;5712;48.858;9.206;2023-12-20T01:11:33;98168.22;;;5.17;100.00
11314;BME280;5712;48.858;9.206;2023-12-20T01:14:00;98178.63;;;5.18;100.00
11314;BME280;5712;48.858;9.206;2023-12-20T01:16:26;98174.16;;;5.20;100.00
11314;BME280;5712;48.858;9.206;2023-12-20T01:18:53;98165.53;;;5.18;100.00
11314;BME280;5712;48.858;9.206;2023-12-20T01:21:19;98180.56;;;5.15;100.00
11314;BME280;5712;48.858;9.206;2023-12-20T01:23:47;98165.06;;;5.10;100.00
11314;BME280;5712;48.858;9.206;2023-12-20T01:26:14;98172.22;;;5.07;100.00
11314;BME280;5712;48.858;9.206;2023-12-20T01:28:41;98168.72;;;5.06;100.00
11314;BME280;5712;48.858;9.206;2023-12-20T01:31:08;98174.13;;;5.03;100.00
11314;BME280;5712;48.858;9.206;2023-12-20T01:33:35;98180.06;;;5.07;100.00
11314;BME280;5712;48.858;9.206;2023-12-20T01:36:01;98184.50;;;5.05;100.00
11314;BME280;5712;48.858;9.206;2023-12-20T01:38:28;98175.81;;;5.04;100.00
11314;BME280;5712;48.858;9.206;2023-12-20T01:40:55;98188.13;;;5.02;100.00
11314;BME280;5712;48.858;9.206;2023-12-20T01:43:22;98179.50;;;5.00;100.00
11314;BME280;5712;48.858;9.206;2023-12-20T01:45:48;98178.72;;;4.98;100.00
11314;BME280;5712;48.858;9.206;2023-12-20T01:48:16;98183.09;;;4.98;100.00
11314;BME280;5712;48.858;9.206;2023-12-20T01:50:45;98186.53;;;5.00;100.00
11314;BME280;5712;48.858;9.206;2023-12-20T01:53:12;98176.09;;;4.98;100.00
11314;BME280;5712;48.858;9.206;2023-12-20T01:55:39;98174.41;;;4.97;100.00
11314;BME280;5712;48.858;9.206;2023-12-20T01:58:08;98168.31;;;4.97;100.00
11314;BME280;5712;48.858;9.206;2023-12-20T02:00:36;98180.53;;;4.96;100.00
11314;BME280;5712;48.858;9.206;2023-12-20T02:03:03;98167.38;;;4.98;100.00
11314;BME280;5712;48.858;9.206;2023-12-20T02:05:30;98165.69;;;4.97;100.00
11314;BME280;5712;48.858;9.206;2023-12-20T02:07:57;98167.25;;;5.01;100.00
11314;BME280;5712;48.858;9.206;2023-12-20T02:10:23;98165.63;;;4.98;100.00
11314;BME280;5712;48.858;9.206;2023-12-20T02:12:50;98163.00;;;4.98;100.00
11314;BME280;5712;48.858;9.206;2023-12-20T02:15:18;98169.09;;;4.99;100.00
11314;BME280;5712;48.858;9.206;2023-12-20T02:17:46;98169.94;;;4.99;100.00
11314;BME280;5712;48.858;9.206;2023-12-20T02:20:13;98170.88;;;4.98;100.00
11314;BME280;5712;48.858;9.206;2023-12-20T02:22:41;98173.56;;;4.97;100.00
11314;BME280;5712;48.858;9.206;2023-12-20T02:25:08;98171.91;;;4.94;100.00
11314;BME280;5712;48.858;9.206;2023-12-20T02:27:35;98177.03;;;4.97;100.00
11314;BME280;5712;48.858;9.206;2023-12-20T02:30:01;98166.69;;;4.94;100.00
11314;BME280;5712;48.858;9.206;2023-12-20T02:32:28;98173.63;;;4.95;100.00
11314;BME280;5712;48.858;9.206;2023-12-20T02:34:55;98167.53;;;4.95;100.00
11314;BME280;5712;48.858;9.206;2023-12-20T02:37:21;98165.84;;;4.94;100.00
11314;BME280;5712;48.858;9.206;2023-12-20T02:39:49;98179.00;;;4.92;100.00
11314;BME280;5712;48.858;9.206;2023-12-20T02:42:16;98167.72;;;4.90;100.00
11314;BME280;5712;48.858;9.206;2023-12-20T02:44:42;98163.28;;;4.92;100.00
11314;BME280;5712;48.858;9.206;2023-12-20T02:47:09;98172.91;;;4.92;100.00
11314;BME280;5712;48.858;9.206;2023-12-20T02:49:35;98171.91;;;4.94;100.00
11314;BME280;5712;48.858;9.206;2023-12-20T02:52:02;98168.25;;;4.98;100.00
11314;BME280;5712;48.858;9.206;2023-12-20T02:54:28;98167.16;;;5.02;100.00
11314;BME280;5712;48.858;9.206;2023-12-20T02:56:56;98157.03;;;5.13;100.00
11314;BME280;5712;48.858;9.206;2023-12-20T02:59:22;98154.19;;;5.18;100.00
11314;BME280;5712;48.858;9.206;2023-12-20T03:01:49;98168.16;;;5.18;100.00
11314;BME280;5712;48.858;9.206;2023-12-20T03:04:15;98166.53;;;5.16;100.00
11314;BME280;5712;48.858;9.206;2023-12-20T03:06:42;98165.53;;;5.18;100.00
11314;BME280;5712;48.858;9.206;2023-12-20T03:09:08;98169.09;;;5.17;100.00
11314;BME280;5712;48.858;9.206;2023-12-20T03:11:35;98165.69;;;5.15;100.00
11314;BME280;5712;48.858;9.206;2023-12-20T03:14:02;98166.53;;;5.16;100.00
11314;BME280;5712;48.858;9.206;2023-12-20T03:16:29;98179.00;;;5.11;100.00
11314;BME280;5712;48.858;9.206;2023-12-20T03:18:56;98181.69;;;5.09;100.00
11314;BME280;5712;48.858;9.206;2023-12-20T03:21:23;98178.28;;;5.07;100.00
11314;BME280;5712;48.858;9.206;2023-12-20T03:23:49;98178.28;;;5.07;100.00
11314;BME280;5712;48.858;9.206;2023-12-20T03:26:16;98183.53;;;5.07;100.00
11314;BME280;5712;48.858;9.206;2023-12-20T03:28:42;98181.06;;;5.04;100.00
11314;BME280;5712;48.858;9.206;2023-12-20T03:31:10;98185.50;;;5.02;100.00
11314;BME280;5712;48.858;9.206;2023-12-20T03:33:37;98177.81;;;4.99;100.00
11314;BME280;5712;48.858;9.206;2023-12-20T03:36:03;98184.59;;;5.03;100.00
11314;BME280;5712;48.858;9.206;2023-12-20T03:38:30;98189.13;;;5.00;100.00
11314;BME280;5712;48.858;9.206;2023-12-20T03:40:56;98185.78;;;4.96;100.00
11314;BME280;5712;48.858;9.206;2023-12-20T03:43:23;98190.25;;;4.94;100.00
11314;BME280;5712;48.858;9.206;2023-12-20T03:45:49;98190.31;;;4.93;100.00
11314;BME280;5712;48.858;9.206;2023-12-20T03:48:17;98197.41;;;4.91;100.00
11314;BME280;5712;48.858;9.206;2023-12-20T03:50:43;98195.78;;;4.88;100.00
11314;BME280;5712;48.858;9.206;2023-12-20T03:53:10;98193.09;;;4.90;100.00
11314;BME280;5712;48.858;9.206;2023-12-20T03:55:36;98200.09;;;4.89;100.00
11314;BME280;5712;48.858;9.206;2023-12-20T03:58:03;98193.31;;;4.85;100.00
11314;BME280;5712;48.858;9.206;2023-12-20T04:00:29;98191.56;;;4.84;100.00
11314;BME280;5712;48.858;9.206;2023-12-20T04:02:56;98186.34;;;4.84;100.00
11314;BME280;5712;48.858;9.206;2023-12-20T04:05:24;98188.06;;;4.85;100.00
11314;BME280;5712;48.858;9.206;2023-12-20T04:07:50;98195.94;;;4.85;100.00
11314;BME280;5712;48.858;9.206;2023-12-20T04:10:17;98187.34;;;4.82;100.00
11314;BME280;5712;48.858;9.206;2023-12-20T04:12:43;98196.09;;;4.81;100.00
11314;BME280;5712;48.858;9.206;2023-12-20T04:15:10;98196.91;;;4.83;100.00
11314;BME280;5712;48.858;9.206;2023-12-20T04:17:37;98195.06;;;4.85;100.00
11314;BME280;5712;48.858;9.206;2023-12-20T04:20:04;98193.31;;;4.85;100.00
11314;BME280;5712;48.858;9.206;2023-12-20T04:22:32;98196.97;;;4.81;100.00
11314;BME280;5712;48.858;9.206;2023-12-20T04:24:59;98207.59;;;4.78;100.00
11314;BME280;5712;48.858;9.206;2023-12-20T04:27:25;98207.44;;;4.81;100.00
11314;BME280;5712;48.858;9.206;2023-12-20T04:29:52;98211.00;;;4.80;100.00
11314;BME280;5712;48.858;9.206;2023-12-20T04:32:18;98218.84;;;4.80;100.00
11314;BME280;5712;48.858;9.206;2023-12-20T04:34:45;98208.44;;;4.79;100.00
11314;BME280;5712;48.858;9.206;2023-12-20T04:37:11;98209.41;;;4.76;100.00
11314;BME280;5712;48.858;9.206;2023-12-20T04:39:40;98217.31;;;4.75;100.00
11314;BME280;5712;48.858;9.206;2023-12-20T04:42:07;98217.22;;;4.78;100.00
11314;BME280;5712;48.858;9.206;2023-12-20T04:44:33;98226.81;;;4.77;100.00
11314;BME280;5712;48.858;9.206;2023-12-20T04:47:00;98231.94;;;4.80;100.00
11314;BME280;5712;48.858;9.206;2023-12-20T04:49:26;98246.06;;;4.76;100.00
11314;BME280;5712;48.858;9.206;2023-12-20T04:51:53;98236.25;;;4.81;100.00
11314;BME280;5712;48.858;9.206;2023-12-20T04:54:19;98235.31;;;4.82;100.00
11314;BME280;5712;48.858;9.206;2023-12-20T04:56:47;98230.94;;;4.83;100.00
11314;BME280;5712;48.858;9.206;2023-12-20T04:59:13;98242.41;;;4.80;100.00
11314;BME280;5712;48.858;9.206;2023-12-20T05:01:40;98242.25;;;4.83;100.00
11314;BME280;5712;48.858;9.206;2023-12-20T05:04:06;98230.09;;;4.82;100.00
11314;BME280;5712;48.858;9.206;2023-12-20T05:06:33;98235.31;;;4.82;100.00
11314;BME280;5712;48.858;9.206;2023-12-20T05:08:59;98230.09;;;4.82;100.00
11314;BME280;5712;48.858;9.206;2023-12-20T05:11:26;98228.25;;;4.84;100.00
11314;BME280;5712;48.858;9.206;2023-12-20T05:13:53;98236.97;;;4.85;100.00
11314;BME280;5712;48.858;9.206;2023-12-20T05:16:20;98233.34;;;4.87;100.00
11314;BME280;5712;48.858;9.206;2023-12-20T05:18:48;98245.53;;;4.88;100.00
11314;BME280;5712;48.858;9.206;2023-12-20T05:21:15;98243.66;;;4.90;100.00
11314;BME280;5712;48.858;9.206;2023-12-20T05:23:41;98246.28;;;4.90;100.00
11314;BME280;5712;48.858;9.206;2023-12-20T05:26:08;98245.41;;;4.91;100.00
11314;BME280;5712;48.858;9.206;2023-12-20T05:28:34;98251.41;;;4.93;100.00
11314;BME280;5712;48.858;9.206;2023-12-20T05:31:02;98250.50;;;4.94;100.00
11314;BME280;5712;48.858;9.206;2023-12-20T05:33:29;98257.41;;;4.95;100.00
11314;BME280;5712;48.858;9.206;2023-12-20T05:35:55;98262.66;;;4.95;100.00
11314;BME280;5712;48.858;9.206;2023-12-20T05:38:22;98263.38;;;4.99;100.00
11314;BME280;5712;48.858;9.206;2023-12-20T05:40:48;98273.00;;;4.98;100.00
11314;BME280;5712;48.858;9.206;2023-12-20T05:43:15;98263.31;;;5.00;100.00
11314;BME280;5712;48.858;9.206;2023-12-20T05:45:41;98271.03;;;5.03;100.00
11314;BME280;5712;48.858;9.206;2023-12-20T05:48:09;98274.56;;;5.02;100.00
11314;BME280;5712;48.858;9.206;2023-12-20T05:50:36;98283.22;;;5.04;100.00
11314;BME280;5712;48.858;9.206;2023-12-20T05:53:03;98285.78;;;5.06;100.00
11314;BME280;5712;48.858;9.206;2023-12-20T05:55:30;98287.38;;;5.08;100.00
11314;BME280;5712;48.858;9.206;2023-12-20T05:57:56;98288.28;;;5.07;100.00
11314;BME280;5712;48.858;9.206;2023-12-20T06:00:23;98284.91;;;5.05;100.00
11314;BME280;5712;48.858;9.206;2023-12-20T06:02:50;98295.38;;;5.05;100.00
11314;BME280;5712;48.858;9.206;2023-12-20T06:05:18;98295.22;;;5.08;100.00
11314;BME280;5712;48.858;9.206;2023-12-20T06:07:45;98307.44;;;5.09;100.00
11314;BME280;5712;48.858;9.206;2023-12-20T06:10:13;98307.28;;;5.12;100.00
11314;BME280;5712;48.858;9.206;2023-12-20T06:12:40;98307.28;;;5.12;100.00
11314;BME280;5712;48.858;9.206;2023-12-20T06:15:07;98303.75;;;5.13;100.00
11314;BME280;5712;48.858;9.206;2023-12-20T06:17:34;98307.28;;;5.12;100.00
11314;BME280;5712;48.858;9.206;2023-12-20T06:20:00;98314.22;;;5.13;100.00
11314;BME280;5712;48.858;9.206;2023-12-20T06:22:29;98304.53;;;5.15;100.00
11314;BME280;5712;48.858;9.206;2023-12-20T06:24:55;98303.63;;;5.16;100.00
11314;BME280;5712;48.858;9.206;2023-12-20T06:27:22;98295.66;;;5.18;100.00
11314;BME280;5712;48.858;9.206;2023-12-20T06:29:48;98296.53;;;5.18;100.00
11314;BME280;5712;48.858;9.206;2023-12-20T06:32:15;98297.41;;;5.19;100.00
11314;BME280;5712;48.858;9.206;2023-12-20T06:34:41;98304.38;;;5.18;100.00
11314;BME280;5712;48.858;9.206;2023-12-20T06:37:08;98312.25;;;5.18;100.00
11314;BME280;5712;48.858;9.206;2023-12-20T06:39:35;98322.72;;;5.18;100.00
11314;BME280;5712;48.858;9.206;2023-12-20T06:42:03;98320.09;;;5.18;100.00
11314;BME280;5712;48.858;9.206;2023-12-20T06:44:29;98319.19;;;5.19;100.00
11314;BME280;5712;48.858;9.206;2023-12-20T06:46:56;98315.63;;;5.20;100.00
11314;BME280;5712;48.858;9.206;2023-12-20T06:49:23;98316.50;;;5.21;100.00
11314;BME280;5712;48.858;9.206;2023-12-20T06:51:49;98323.44;;;5.22;100.00
11314;BME280;5712;48.858;9.206;2023-12-20T06:54:16;98324.31;;;5.22;100.00
11314;BME280;5712;48.858;9.206;2023-12-20T06:56:44;98333.81;;;5.25;100.00
11314;BME280;5712;48.858;9.206;2023-12-20T06:59:10;98336.47;;;5.23;100.00
11314;BME280;5712;48.858;9.206;2023-12-20T07:01:37;98338.19;;;5.24;100.00
11314;BME280;5712;48.858;9.206;2023-12-20T07:04:04;98335.44;;;5.27;100.00
11314;BME280;5712;48.858;9.206;2023-12-20T07:06:30;98349.31;;;5.29;100.00
11314;BME280;5712;48.858;9.206;2023-12-20T07:08:57;98352.00;;;5.28;100.00
11314;BME280;5712;48.858;9.206;2023-12-20T07:11:24;98344.78;;;5.33;100.00
11314;BME280;5712;48.858;9.206;2023-12-20T07:13:52;98360.56;;;5.31;100.00
11314;BME280;5712;48.858;9.206;2023-12-20T07:16:19;98366.59;;;5.33;100.00
11314;BME280;5712;48.858;9.206;2023-12-20T07:18:46;98369.28;;;5.32;100.00
11314;BME280;5712;48.858;9.206;2023-12-20T07:21:12;98362.13;;;5.35;100.00
11314;BME280;5712;48.858;9.206;2023-12-20T07:23:39;98377.91;;;5.34;100.00
11314;BME280;5712;48.858;9.206;2023-12-20T07:26:05;98376.16;;;5.34;100.00
11314;BME280;5712;48.858;9.206;2023-12-20T07:28:32;98381.53;;;5.31;100.00
11314;BME280;5712;48.858;9.206;2023-12-20T07:31:00;98381.53;;;5.31;100.00
11314;BME280;5712;48.858;9.206;2023-12-20T07:33:26;98392.16;;;5.28;100.00
11314;BME280;5712;48.858;9.206;2023-12-20T07:35:53;98390.59;;;5.24;100.00
11314;BME280;5712;48.858;9.206;2023-12-20T07:38:22;98394.13;;;5.23;100.00
11314;BME280;5712;48.858;9.206;2023-12-20T07:40:48;98402.09;;;5.20;100.00
11314;BME280;5712;48.858;9.206;2023-12-20T07:43:15;98403.19;;;5.16;100.00
11314;BME280;5712;48.858;9.206;2023-12-20T07:45:41;98394.78;;;5.08;100.00
11314;BME280;5712;48.858;9.206;2023-12-20T07:48:09;98400.28;;;5.02;100.00
11314;BME280;5712;48.858;9.206;2023-12-20T07:50:36;98400.53;;;4.96;100.00
11314;BME280;5712;48.858;9.206;2023-12-20T07:53:02;98404.06;;;4.95;100.00
11314;BME280;5712;48.858;9.206;2023-12-20T07:55:29;98408.03;;;4.85;100.00
11314;BME280;5712;48.858;9.206;2023-12-20T07:57:57;98413.16;;;4.67;100.00
11314;BME280;5712;48.858;9.206;2023-12-20T08:00:23;98412.59;;;4.60;100.00
11314;BME280;5712;48.858;9.206;2023-12-20T08:02:50;98415.31;;;4.57;100.00
11314;BME280;5712;48.858;9.206;2023-12-20T08:05:17;98406.97;;;4.48;100.00
11314;BME280;5712;48.858;9.206;2023-12-20T08:07:44;98414.16;;;4.43;100.00
11314;BME280;5712;48.858;9.206;2023-12-20T08:10:10;98416.25;;;4.35;100.00
11314;BME280;5712;48.858;9.206;2023-12-20T08:12:38;98430.50;;;4.28;100.00
11314;BME280;5712;48.858;9.206;2023-12-20T08:15:06;98427.88;;;4.28;100.00
11314;BME280;5712;48.858;9.206;2023-12-20T08:17:32;98429.88;;;4.21;100.00
11314;BME280;5712;48.858;9.206;2023-12-20T08:19:59;98438.88;;;4.14;100.00
11314;BME280;5712;48.858;9.206;2023-12-20T08:22:27;98432.97;;;4.09;100.00
11314;BME280;5712;48.858;9.206;2023-12-20T08:24:53;98445.00;;;4.13;100.00
11314;BME280;5712;48.858;9.206;2023-12-20T08:27:20;98439.88;;;4.10;100.00
11314;BME280;5712;48.858;9.206;2023-12-20T08:29:46;98433.50;;;4.17;100.00
11314;BME280;5712;48.858;9.206;2023-12-20T08:32:14;98436.44;;;4.10;100.00
11314;BME280;5712;48.858;9.206;2023-12-20T08:34:41;98444.72;;;4.21;100.00
11314;BME280;5712;48.858;9.206;2023-12-20T08:37:07;98459.56;;;4.20;100.00
11314;BME280;5712;48.858;9.206;2023-12-20T08:39:35;98465.69;;;4.19;100.00
11314;BME280;5712;48.858;9.206;2023-12-20T08:42:02;98457.97;;;4.16;100.00
11314;BME280;5712;48.858;9.206;2023-12-20T08:44:29;98463.31;;;4.13;100.00
11314;BME280;5712;48.858;9.206;2023-12-20T08:46:55;98465.16;;;4.11;100.00
11314;BME280;5712;48.858;9.206;2023-12-20T08:49:22;98465.88;;;4.15;100.00
11314;BME280;5712;48.858;9.206;2023-12-20T08:51:49;98471.03;;;4.16;100.00
11314;BME280;5712;48.858;9.206;2023-12-20T08:54:16;98475.34;;;4.17;100.00
11314;BME280;5712;48.858;9.206;2023-12-20T08:56:44;98473.66;;;4.16;100.00
11314;BME280;5712;48.858;9.206;2023-12-20T08:59:11;98462.97;;;4.22;100.00
11314;BME280;5712;48.858;9.206;2023-12-20T09:01:37;98464.56;;;4.26;100.00
11314;BME280;5712;48.858;9.206;2023-12-20T09:04:04;98459.41;;;4.23;100.00
11314;BME280;5712;48.858;9.206;2023-12-20T09:06:31;98465.53;;;4.24;100.00
11314;BME280;5712;48.858;9.206;2023-12-20T09:08:58;98452.16;;;4.31;100.00
11314;BME280;5712;48.858;9.206;2023-12-20T09:11:24;98466.16;;;4.30;100.00
11314;BME280;5712;48.858;9.206;2023-12-20T09:13:52;98452.88;;;4.35;100.00
11314;BME280;5712;48.858;9.206;2023-12-20T09:16:18;98451.78;;;4.40;100.00
11314;BME280;5712;48.858;9.206;2023-12-20T09:18:45;98453.47;;;4.41;100.00
11314;BME280;5712;48.858;9.206;2023-12-20T09:21:11;98453.34;;;4.44;100.00
11314;BME280;5712;48.858;9.206;2023-12-20T09:23:38;98457.72;;;4.44;100.00
11314;BME280;5712;48.858;9.206;2023-12-20T09:26:05;98462.13;;;4.43;100.00
11314;BME280;5712;48.858;9.206;2023-12-20T09:28:32;98460.44;;;4.42;100.00
11314;BME280;5712;48.858;9.206;2023-12-20T09:31:04;98462.22;;;4.40;100.00
11314;BME280;5712;48.858;9.206;2023-12-20T09:33:30;98460.44;;;4.42;100.00
11314;BME280;5712;48.858;9.206;2023-12-20T09:35:57;98467.22;;;4.46;100.00
11314;BME280;5712;48.858;9.206;2023-12-20T09:38:23;98467.94;;;4.50;100.00
11314;BME280;5712;48.858;9.206;2023-12-20T09:40:50;98474.06;;;4.50;100.00
11314;BME280;5712;48.858;9.206;2023-12-20T09:43:19;98482.69;;;4.52;100.00
11314;BME280;5712;48.858;9.206;2023-12-20T09:45:47;98489.50;;;4.56;100.00
11314;BME280;5712;48.858;9.206;2023-12-20T09:48:18;98476.25;;;4.61;100.00
11314;BME280;5712;48.858;9.206;2023-12-20T09:50:45;98480.63;;;4.60;100.00
11314;BME280;5712;48.858;9.206;2023-12-20T09:53:15;98480.41;;;4.66;100.00
11314;BME280;5712;48.858;9.206;2023-12-20T09:55:42;98475.88;;;4.70;100.00
11314;BME280;5712;48.858;9.206;2023-12-20T09:58:08;98469.44;;;4.78;100.00
11314;BME280;5712;48.858;9.206;2023-12-20T10:00:35;98466.06;;;4.75;100.00
11314;BME280;5712;48.858;9.206;2023-12-20T10:03:03;98467.06;;;4.72;100.00
11314;BME280;5712;48.858;9.206;2023-12-20T10:05:34;98473.66;;;4.81;100.00
11314;BME280;5712;48.858;9.206;2023-12-20T10:08:01;98482.13;;;4.87;100.00
11314;BME280;5712;48.858;9.206;2023-12-20T10:10:28;98470.72;;;4.88;100.00
11314;BME280;5712;48.858;9.206;2023-12-20T10:13:02;98470.72;;;4.88;100.00
11314;BME280;5712;48.858;9.206;2023-12-20T10:15:29;98470.72;;;4.88;100.00
11314;BME280;5712;48.858;9.206;2023-12-20T10:17:56;98457.63;;;4.88;100.00
11314;BME280;5712;48.858;9.206;2023-12-20T10:20:22;98458.56;;;4.87;100.00
11314;BME280;5712;48.858;9.206;2023-12-20T10:22:51;98460.16;;;4.91;100.00
11314;BME280;5712;48.858;9.206;2023-12-20T10:25:18;98460.16;;;4.91;100.00
11314;BME280;5712;48.858;9.206;2023-12-20T10:27:45;98454.50;;;5.00;100.00
11314;BME280;5712;48.858;9.206;2023-12-20T10:30:12;98452.81;;;4.99;100.00
11314;BME280;5712;48.858;9.206;2023-12-20T10:32:39;98447.44;;;5.02;100.00
11314;BME280;5712;48.858;9.206;2023-12-20T10:35:06;98448.19;;;5.06;100.00
11314;BME280;5712;48.858;9.206;2023-12-20T10:37:35;98430.72;;;5.05;100.00
11314;BME280;5712;48.858;9.206;2023-12-20T10:40:04;98435.00;;;5.07;100.00
11314;BME280;5712;48.858;9.206;2023-12-20T10:42:32;98445.34;;;5.10;100.00
11314;BME280;5712;48.858;9.206;2023-12-20T10:44:59;98438.16;;;5.15;100.00
11314;BME280;5712;48.858;9.206;2023-12-20T10:47:26;98445.34;;;5.30;100.00
11314;BME280;5712;48.858;9.206;2023-12-20T10:49:52;98446.28;;;5.48;100.00
11314;BME280;5712;48.858;9.206;2023-12-20T10:52:19;98442.38;;;5.58;100.00
11314;BME280;5712;48.858;9.206;2023-12-20T10:54:49;98441.22;;;5.63;100.00
11314;BME280;5712;48.858;9.206;2023-12-20T10:57:18;98424.59;;;5.64;100.00
11314;BME280;5712;48.858;9.206;2023-12-20T10:59:45;98416.84;;;5.61;100.00
11314;BME280;5712;48.858;9.206;2023-12-20T11:02:13;98416.59;;;5.67;100.00
11314;BME280;5712;48.858;9.206;2023-12-20T11:04:47;98413.69;;;5.73;100.00
11314;BME280;5712;48.858;9.206;2023-12-20T11:07:21;98398.19;;;5.87;100.00
11314;BME280;5712;48.858;9.206;2023-12-20T11:09:57;98407.53;;;6.11;100.00
11314;BME280;5712;48.858;9.206;2023-12-20T11:12:36;98400.78;;;6.24;100.00
11314;BME280;5712;48.858;9.206;2023-12-20T11:15:06;98377.03;;;6.27;100.00
11314;BME280;5712;48.858;9.206;2023-12-20T11:17:33;98373.78;;;6.22;100.00
11314;BME280;5712;48.858;9.206;2023-12-20T11:20:08;98370.25;;;6.05;100.00
11314;BME280;5712;48.858;9.206;2023-12-20T11:22:36;98391.53;;;5.99;100.00
11314;BME280;5712;48.858;9.206;2023-12-20T11:25:08;98395.91;;;5.98;100.00
11314;BME280;5712;48.858;9.206;2023-12-20T11:27:39;98394.09;;;6.00;100.00
11314;BME280;5712;48.858;9.206;2023-12-20T11:30:07;98401.22;;;6.15;100.00
11314;BME280;5712;48.858;9.206;2023-12-20T11:32:35;98387.66;;;6.24;100.00
11314;BME280;5712;48.858;9.206;2023-12-20T11:35:17;98385.13;;;6.23;100.00
11314;BME280;5712;48.858;9.206;2023-12-20T11:37:45;98387.94;;;6.18;100.00
11314;BME280;5712;48.858;9.206;2023-12-20T11:40:14;98390.69;;;6.17;100.00
11314;BME280;5712;48.858;9.206;2023-12-20T11:42:43;98402.00;;;6.17;100.00
11314;BME280;5712;48.858;9.206;2023-12-20T11:45:13;98404.00;;;6.12;100.00
11314;BME280;5712;48.858;9.206;2023-12-20T11:47:41;98407.00;;;6.05;100.00
11314;BME280;5712;48.858;9.206;2023-12-20T11:50:08;98400.19;;;6.01;100.00
11314;BME280;5712;48.858;9.206;2023-12-20T11:52:35;98392.81;;;5.90;100.00
11314;BME280;5712;48.858;9.206;2023-12-20T11:55:02;98391.25;;;5.86;100.00
11314;BME280;5712;48.858;9.206;2023-12-20T11:57:28;98384.47;;;5.82;100.00
11314;BME280;5712;48.858;9.206;2023-12-20T11:59:56;98385.16;;;5.86;100.00
11314;BME280;5712;48.858;9.206;2023-12-20T12:02:23;98373.81;;;5.85;100.00
11314;BME280;5712;48.858;9.206;2023-12-20T12:04:50;98377.06;;;5.90;100.00
11314;BME280;5712;48.858;9.206;2023-12-20T12:07:16;98361.19;;;5.93;100.00
11314;BME280;5712;48.858;9.206;2023-12-20T12:09:43;98371.38;;;5.99;100.00
11314;BME280;5712;48.858;9.206;2023-12-20T12:12:11;98358.91;;;6.04;100.00
11314;BME280;5712;48.858;9.206;2023-12-20T12:14:38;98353.81;;;6.01;100.00
11314;BME280;5712;48.858;9.206;2023-12-20T12:17:10;98354.34;;;6.08;100.00
11314;BME280;5712;48.858;9.206;2023-12-20T12:19:38;98342.16;;;6.07;99.85
11314;BME280;5712;48.858;9.206;2023-12-20T12:22:05;98358.38;;;6.15;100.00
11314;BME280;5712;48.858;9.206;2023-12-20T12:24:33;98346.59;;;6.23;100.00
11314;BME280;5712;48.858;9.206;2023-12-20T12:27:00;98343.22;;;6.21;100.00
11314;BME280;5712;48.858;9.206;2023-12-20T12:29:27;98335.47;;;6.18;99.71
11314;BME280;5712;48.858;9.206;2023-12-20T12:31:54;98334.47;;;6.21;98.49
11314;BME280;5712;48.858;9.206;2023-12-20T12:34:22;98334.88;;;6.30;99.59
11314;BME280;5712;48.858;9.206;2023-12-20T12:36:48;98337.69;;;6.44;99.42
11314;BME280;5712;48.858;9.206;2023-12-20T12:39:17;98325.03;;;6.52;95.74
11314;BME280;5712;48.858;9.206;2023-12-20T12:41:44;98315.16;;;6.57;95.20
11314;BME280;5712;48.858;9.206;2023-12-20T12:44:10;98314.84;;;6.63;94.70
11314;BME280;5712;48.858;9.206;2023-12-20T12:46:37;98318.84;;;6.70;95.06
11314;BME280;5712;48.858;9.206;2023-12-20T12:49:04;98305.25;;;6.62;93.50
11314;BME280;5712;48.858;9.206;2023-12-20T12:51:32;98314.91;;;6.62;93.78
11314;BME280;5712;48.858;9.206;2023-12-20T12:53:58;98327.09;;;6.63;94.57
11314;BME280;5712;48.858;9.206;2023-12-20T12:56:24;98316.06;;;6.56;93.85
11314;BME280;5712;48.858;9.206;2023-12-20T12:58:51;98326.88;;;6.50;93.77
11314;BME280;5712;48.858;9.206;2023-12-20T13:01:17;98326.03;;;6.50;94.62
11314;BME280;5712;48.858;9.206;2023-12-20T13:03:44;98326.72;;;6.53;93.33
11314;BME280;5712;48.858;9.206;2023-12-20T13:06:10;98327.31;;;6.41;95.52
11314;BME280;5712;48.858;9.206;2023-12-20T13:08:39;98324.38;;;6.30;96.33
11314;BME280;5712;48.858;9.206;2023-12-20T13:11:05;98324.97;;;6.18;96.45